sensor_id;sensor_type;location;lat;lon;timestamp;pressure;altitude;pressure_sealevel;temperature;humidity
57606;BME280;43430;48.204;11.556;2023-08-06T00:01:37;95588.44;;;14.01;100.00
57606;BME280;43430;48.204;11.556;2023-08-06T00:04:03;95589.19;;;13.97;100.00
57606;BME280;43430;48.204;11.556;2023-08-06T00:06:28;95593.16;;;13.94;100.00
57606;BME280;43430;48.204;11.556;2023-08-06T00:08:53;95597.13;;;13.97;100.00
57606;BME280;43430;48.204;11.556;2023-08-06T00:11:20;95599.75;;;13.92;100.00
57606;BME280;43430;48.204;11.556;2023-08-06T00:13:45;95594.94;;;13.89;100.00
57606;BME280;43430;48.204;11.556;2023-08-06T00:16:11;95597.66;;;13.94;100.00
57606;BME280;43430;48.204;11.556;2023-08-06T00:18:37;95590.66;;;13.83;100.00
57606;BME280;43430;48.204;11.556;2023-08-06T00:21:02;95595.66;;;13.79;100.00
57606;BME280;43430;48.204;11.556;2023-08-06T00:23:28;95592.66;;;13.70;100.00
57606;BME280;43430;48.204;11.556;2023-08-06T00:25:53;95590.94;;;13.59;100.00
57606;BME280;43430;48.204;11.556;2023-08-06T00:28:18;95595.41;;;13.53;100.00
57606;BME280;43430;48.204;11.556;2023-08-06T00:30:44;95594.34;;;13.54;100.00
57606;BME280;43430;48.204;11.556;2023-08-06T00:33:09;95594.84;;;13.51;100.00
57606;BME280;43430;48.204;11.556;2023-08-06T00:35:35;95601.78;;;13.52;100.00
57606;BME280;43430;48.204;11.556;2023-08-06T00:38:00;95597.66;;;13.40;100.00
57606;BME280;43430;48.204;11.556;2023-08-06T00:40:25;95585.50;;;13.22;100.00
57606;BME280;43430;48.204;11.556;2023-08-06T00:42:53;95587.03;;;13.18;100.00
57606;BME280;43430;48.204;11.556;2023-08-06T00:45:18;95579.97;;;13.01;100.00
57606;BME280;43430;48.204;11.556;2023-08-06T00:47:44;95566.94;;;12.95;100.00
57606;BME280;43430;48.204;11.556;2023-08-06T00:50:10;95572.72;;;12.92;100.00
57606;BME280;43430;48.204;11.556;2023-08-06T00:52:36;95575.78;;;12.83;100.00
57606;BME280;43430;48.204;11.556;2023-08-06T00:55:02;95564.38;;;12.83;100.00
57606;BME280;43430;48.204;11.556;2023-08-06T00:57:28;95560.75;;;12.89;100.00
57606;BME280;43430;48.204;11.556;2023-08-06T00:59:54;95566.84;;;12.90;100.00
57606;BME280;43430;48.204;11.556;2023-08-06T01:02:20;95563.19;;;12.91;100.00
57606;BME280;43430;48.204;11.556;2023-08-06T01:04:45;95567.47;;;12.97;100.00
57606;BME280;43430;48.204;11.556;2023-08-06T01:10:21;95563.22;;;12.96;100.00
57606;BME280;43430;48.204;11.556;2023-08-06T01:15:32;95567.47;;;12.97;100.00
57606;BME280;43430;48.204;11.556;2023-08-06T01:18:00;95567.47;;;12.97;100.00
57606;BME280;43430;48.204;11.556;2023-08-06T01:20:30;95563.53;;;12.99;100.00
57606;BME280;43430;48.204;11.556;2023-08-06T01:22:56;95558.25;;;12.99;100.00
57606;BME280;43430;48.204;11.556;2023-08-06T01:25:28;95555.38;;;13.01;100.00
57606;BME280;43430;48.204;11.556;2023-08-06T01:28:02;95550.31;;;12.99;100.00
57606;BME280;43430;48.204;11.556;2023-08-06T01:30:31;95546.84;;;12.99;100.00
57606;BME280;43430;48.204;11.556;2023-08-06T01:33:04;95546.38;;;13.02;100.00
57606;BME280;43430;48.204;11.556;2023-08-06T01:35:30;95541.00;;;12.97;100.00
57606;BME280;43430;48.204;11.556;2023-08-06T01:37:58;95544.41;;;12.92;100.00
57606;BME280;43430;48.204;11.556;2023-08-06T01:40:24;95548.31;;;12.90;100.00
57606;BME280;43430;48.204;11.556;2023-08-06T01:42:52;95544.34;;;12.87;100.00
57606;BME280;43430;48.204;11.556;2023-08-06T01:45:17;95540.34;;;12.85;100.00
57606;BME280;43430;48.204;11.556;2023-08-06T01:47:43;95539.28;;;12.86;100.00
57606;BME280;43430;48.204;11.556;2023-08-06T01:50:08;95539.59;;;12.89;100.00
57606;BME280;43430;48.204;11.556;2023-08-06T01:52:34;95531.91;;;12.88;100.00
57606;BME280;43430;48.204;11.556;2023-08-06T01:54:59;95536.09;;;12.83;100.00
57606;BME280;43430;48.204;11.556;2023-08-06T01:57:24;95538.19;;;12.81;100.00
57606;BME280;43430;48.204;11.556;2023-08-06T01:59:50;95531.34;;;12.86;100.00
57606;BME280;43430;48.204;11.556;2023-08-06T02:02:16;95526.00;;;12.80;100.00
57606;BME280;43430;48.204;11.556;2023-08-06T02:04:41;95522.81;;;12.78;100.00
57606;BME280;43430;48.204;11.556;2023-08-06T02:07:06;95527.03;;;12.79;100.00
57606;BME280;43430;48.204;11.556;2023-08-06T02:09:32;95516.09;;;12.71;100.00
57606;BME280;43430;48.204;11.556;2023-08-06T02:11:57;95510.06;;;12.75;100.00
57606;BME280;43430;48.204;11.556;2023-08-06T02:14:23;95514.28;;;12.76;100.00
57606;BME280;43430;48.204;11.556;2023-08-06T02:16:48;95517.69;;;12.72;100.00
57606;BME280;43430;48.204;11.556;2023-08-06T02:19:14;95507.91;;;12.72;100.00
57606;BME280;43430;48.204;11.556;2023-08-06T02:21:40;95506.81;;;12.68;100.00
57606;BME280;43430;48.204;11.556;2023-08-06T02:24:05;95515.03;;;12.72;100.00
57606;BME280;43430;48.204;11.556;2023-08-06T02:26:30;95502.63;;;12.72;100.00
57606;BME280;43430;48.204;11.556;2023-08-06T02:28:56;95496.03;;;12.75;100.00
57606;BME280;43430;48.204;11.556;2023-08-06T02:31:21;95493.34;;;12.70;100.00
57606;BME280;43430;48.204;11.556;2023-08-06T02:33:47;95492.59;;;12.74;100.00
57606;BME280;43430;48.204;11.556;2023-08-06T02:36:12;95484.34;;;12.71;100.00
57606;BME280;43430;48.204;11.556;2023-08-06T02:38:37;95491.53;;;12.75;100.00
57606;BME280;43430;48.204;11.556;2023-08-06T02:41:03;95491.72;;;12.69;100.00
57606;BME280;43430;48.204;11.556;2023-08-06T02:43:29;95482.75;;;12.70;100.00
57606;BME280;43430;48.204;11.556;2023-08-06T02:45:58;95481.72;;;12.71;100.00
57606;BME280;43430;48.204;11.556;2023-08-06T02:48:24;95465.03;;;12.70;100.00
57606;BME280;43430;48.204;11.556;2023-08-06T02:50:49;95463.38;;;12.64;100.00
57606;BME280;43430;48.204;11.556;2023-08-06T02:53:14;95459.16;;;12.63;100.00
57606;BME280;43430;48.204;11.556;2023-08-06T02:55:48;95450.19;;;12.69;100.00
57606;BME280;43430;48.204;11.556;2023-08-06T02:58:14;95450.38;;;12.63;100.00
57606;BME280;43430;48.204;11.556;2023-08-06T03:00:40;95461.28;;;12.66;100.00
57606;BME280;43430;48.204;11.556;2023-08-06T03:03:06;95464.47;;;12.68;100.00
57606;BME280;43430;48.204;11.556;2023-08-06T03:05:31;95462.09;;;12.67;100.00
57606;BME280;43430;48.204;11.556;2023-08-06T03:07:56;95463.88;;;12.61;100.00
57606;BME280;43430;48.204;11.556;2023-08-06T03:10:22;95472.38;;;12.63;100.00
57606;BME280;43430;48.204;11.556;2023-08-06T03:12:47;95473.03;;;12.53;100.00
57606;BME280;43430;48.204;11.556;2023-08-06T03:15:13;95472.72;;;12.50;100.00
57606;BME280;43430;48.204;11.556;2023-08-06T03:17:38;95470.09;;;12.50;100.00
57606;BME280;43430;48.204;11.556;2023-08-06T03:20:04;95470.81;;;12.45;100.00
57606;BME280;43430;48.204;11.556;2023-08-06T03:22:29;95466.97;;;12.53;100.00
57606;BME280;43430;48.204;11.556;2023-08-06T03:24:55;95467.69;;;12.48;100.00
57606;BME280;43430;48.204;11.556;2023-08-06T03:27:20;95467.44;;;12.50;100.00
57606;BME280;43430;48.204;11.556;2023-08-06T03:29:49;95469.28;;;12.49;100.00
57606;BME280;43430;48.204;11.556;2023-08-06T03:32:15;95472.66;;;12.45;100.00
57606;BME280;43430;48.204;11.556;2023-08-06T03:34:40;95473.44;;;12.45;100.00
57606;BME280;43430;48.204;11.556;2023-08-06T03:37:06;95473.72;;;12.44;100.00
57606;BME280;43430;48.204;11.556;2023-08-06T03:39:31;95468.41;;;12.44;100.00
57606;BME280;43430;48.204;11.556;2023-08-06T03:41:56;95462.81;;;12.40;100.00
57606;BME280;43430;48.204;11.556;2023-08-06T03:44:21;95456.44;;;12.36;100.00
57606;BME280;43430;48.204;11.556;2023-08-06T03:46:47;95453.84;;;12.41;100.00
57606;BME280;43430;48.204;11.556;2023-08-06T03:49:12;95458.34;;;12.41;100.00
57606;BME280;43430;48.204;11.556;2023-08-06T03:51:38;95454.63;;;12.42;100.00
57606;BME280;43430;48.204;11.556;2023-08-06T03:54:03;95448.25;;;12.38;100.00
57606;BME280;43430;48.204;11.556;2023-08-06T03:56:28;95457.53;;;12.40;100.00
57606;BME280;43430;48.204;11.556;2023-08-06T03:58:54;95458.03;;;12.37;100.00
57606;BME280;43430;48.204;11.556;2023-08-06T04:01:19;95459.06;;;12.36;100.00
57606;BME280;43430;48.204;11.556;2023-08-06T04:03:44;95453.47;;;12.32;100.00
57606;BME280;43430;48.204;11.556;2023-08-06T04:06:10;95443.13;;;12.31;100.00
57606;BME280;43430;48.204;11.556;2023-08-06T04:08:35;95452.91;;;12.30;100.00
57606;BME280;43430;48.204;11.556;2023-08-06T04:11:01;95446.56;;;12.31;100.00
57606;BME280;43430;48.204;11.556;2023-08-06T04:13:26;95451.31;;;12.29;100.00
57606;BME280;43430;48.204;11.556;2023-08-06T04:15:51;95443.94;;;12.31;100.00
57606;BME280;43430;48.204;11.556;2023-08-06T04:18:17;95446.09;;;12.34;100.00
57606;BME280;43430;48.204;11.556;2023-08-06T04:20:43;95453.53;;;12.38;100.00
57606;BME280;43430;48.204;11.556;2023-08-06T04:23:10;95450.03;;;12.32;100.00
57606;BME280;43430;48.204;11.556;2023-08-06T04:25:35;95457.75;;;12.39;100.00
57606;BME280;43430;48.204;11.556;2023-08-06T04:28:00;95450.66;;;12.39;100.00
57606;BME280;43430;48.204;11.556;2023-08-06T04:30:26;95449.13;;;12.43;100.00
57606;BME280;43430;48.204;11.556;2023-08-06T04:32:51;95447.75;;;12.41;100.00
57606;BME280;43430;48.204;11.556;2023-08-06T04:35:16;95454.22;;;12.50;100.00
57606;BME280;43430;48.204;11.556;2023-08-06T04:37:42;95453.72;;;12.53;100.00
57606;BME280;43430;48.204;11.556;2023-08-06T04:40:08;95448.44;;;12.53;100.00
57606;BME280;43430;48.204;11.556;2023-08-06T04:42:33;95451.88;;;12.53;100.00
57606;BME280;43430;48.204;11.556;2023-08-06T04:44:59;95458.69;;;12.71;100.00
57606;BME280;43430;48.204;11.556;2023-08-06T04:47:24;95448.91;;;12.72;100.00
57606;BME280;43430;48.204;11.556;2023-08-06T04:49:51;95449.59;;;12.84;100.00
57606;BME280;43430;48.204;11.556;2023-08-06T04:52:16;95451.66;;;12.82;100.00
57606;BME280;43430;48.204;11.556;2023-08-06T04:54:43;95444.53;;;12.82;100.00
57606;BME280;43430;48.204;11.556;2023-08-06T04:57:09;95452.97;;;12.79;100.00
57606;BME280;43430;48.204;11.556;2023-08-06T04:59:34;95442.63;;;12.78;100.00
57606;BME280;43430;48.204;11.556;2023-08-06T05:01:59;95437.84;;;12.75;100.00
57606;BME280;43430;48.204;11.556;2023-08-06T05:04:25;95430.19;;;12.78;100.00
57606;BME280;43430;48.204;11.556;2023-08-06T05:06:50;95438.25;;;12.89;100.00
57606;BME280;43430;48.204;11.556;2023-08-06T05:09:15;95437.38;;;12.83;100.00
57606;BME280;43430;48.204;11.556;2023-08-06T05:11:41;95437.16;;;12.85;100.00
57606;BME280;43430;48.204;11.556;2023-08-06T05:14:06;95426.88;;;12.88;100.00
57606;BME280;43430;48.204;11.556;2023-08-06T05:16:31;95417.56;;;12.86;100.00
57606;BME280;43430;48.204;11.556;2023-08-06T05:18:57;95417.78;;;12.79;100.00
57606;BME280;43430;48.204;11.556;2023-08-06T05:21:22;95419.63;;;12.78;100.00
57606;BME280;43430;48.204;11.556;2023-08-06T05:23:47;95423.56;;;12.76;100.00
57606;BME280;43430;48.204;11.556;2023-08-06T05:26:13;95425.38;;;12.70;100.00
57606;BME280;43430;48.204;11.556;2023-08-06T05:28:41;95418.22;;;12.71;100.00
57606;BME280;43430;48.204;11.556;2023-08-06T05:31:06;95418.75;;;12.73;100.00
57606;BME280;43430;48.204;11.556;2023-08-06T05:33:31;95426.56;;;12.85;100.00
57606;BME280;43430;48.204;11.556;2023-08-06T05:35:57;95422.34;;;12.83;100.00
57606;BME280;43430;48.204;11.556;2023-08-06T05:38:22;95419.72;;;12.89;100.00
57606;BME280;43430;48.204;11.556;2023-08-06T05:40:48;95422.75;;;12.97;100.00
57606;BME280;43430;48.204;11.556;2023-08-06T05:43:14;95426.19;;;12.98;100.00
57606;BME280;43430;48.204;11.556;2023-08-06T05:45:39;95420.31;;;12.96;100.00
57606;BME280;43430;48.204;11.556;2023-08-06T05:48:09;95421.38;;;12.95;100.00
57606;BME280;43430;48.204;11.556;2023-08-06T05:50:34;95431.47;;;12.98;100.00
57606;BME280;43430;48.204;11.556;2023-08-06T05:52:59;95419.75;;;12.94;100.00
57606;BME280;43430;48.204;11.556;2023-08-06T05:55:25;95421.97;;;13.02;100.00
57606;BME280;43430;48.204;11.556;2023-08-06T05:57:50;95413.56;;;13.10;100.00
57606;BME280;43430;48.204;11.556;2023-08-06T06:00:17;95412.53;;;13.11;100.00
57606;BME280;43430;48.204;11.556;2023-08-06T06:02:43;95415.78;;;13.18;100.00
57606;BME280;43430;48.204;11.556;2023-08-06T06:05:09;95412.06;;;13.19;100.00
57606;BME280;43430;48.204;11.556;2023-08-06T06:07:34;95408.13;;;13.22;100.00
57606;BME280;43430;48.204;11.556;2023-08-06T06:10:00;95405.81;;;13.25;100.00
57606;BME280;43430;48.204;11.556;2023-08-06T06:12:25;95397.66;;;13.32;100.00
57606;BME280;43430;48.204;11.556;2023-08-06T06:14:51;95403.03;;;13.42;100.00
57606;BME280;43430;48.204;11.556;2023-08-06T06:17:16;95403.34;;;13.51;100.00
57606;BME280;43430;48.204;11.556;2023-08-06T06:19:42;95397.06;;;13.62;100.00
57606;BME280;43430;48.204;11.556;2023-08-06T06:22:07;95393.13;;;13.65;100.00
57606;BME280;43430;48.204;11.556;2023-08-06T06:24:33;95393.41;;;13.68;100.00
57606;BME280;43430;48.204;11.556;2023-08-06T06:26:58;95388.69;;;13.75;100.00
57606;BME280;43430;48.204;11.556;2023-08-06T06:29:24;95394.25;;;13.74;100.00
57606;BME280;43430;48.204;11.556;2023-08-06T06:31:49;95384.94;;;13.71;100.00
57606;BME280;43430;48.204;11.556;2023-08-06T06:34:15;95378.34;;;13.79;100.00
57606;BME280;43430;48.204;11.556;2023-08-06T06:36:40;95365.94;;;13.85;100.00
57606;BME280;43430;48.204;11.556;2023-08-06T06:39:06;95363.31;;;13.90;100.00
57606;BME280;43430;48.204;11.556;2023-08-06T06:41:31;95355.69;;;13.98;100.00
57606;BME280;43430;48.204;11.556;2023-08-06T06:43:58;95355.97;;;14.02;100.00
57606;BME280;43430;48.204;11.556;2023-08-06T06:46:23;95349.06;;;14.01;100.00
57606;BME280;43430;48.204;11.556;2023-08-06T06:48:49;95350.66;;;14.02;100.00
57606;BME280;43430;48.204;11.556;2023-08-06T06:51:14;95345.41;;;14.12;100.00
57606;BME280;43430;48.204;11.556;2023-08-06T06:53:39;95338.78;;;14.15;100.00
57606;BME280;43430;48.204;11.556;2023-08-06T06:56:05;95337.50;;;14.28;100.00
57606;BME280;43430;48.204;11.556;2023-08-06T06:58:31;95333.56;;;14.35;100.00
57606;BME280;43430;48.204;11.556;2023-08-06T07:00:57;95332.50;;;14.41;100.00
57606;BME280;43430;48.204;11.556;2023-08-06T07:03:22;95326.16;;;14.47;100.00
57606;BME280;43430;48.204;11.556;2023-08-06T07:05:49;95317.94;;;14.49;100.00
57606;BME280;43430;48.204;11.556;2023-08-06T07:08:14;95307.31;;;14.39;100.00
57606;BME280;43430;48.204;11.556;2023-08-06T07:10:41;95294.13;;;14.64;100.00
57606;BME280;43430;48.204;11.556;2023-08-06T07:13:07;95267.56;;;14.90;100.00
57606;BME280;43430;48.204;11.556;2023-08-06T07:15:33;95268.91;;;14.98;100.00
57606;BME280;43430;48.204;11.556;2023-08-06T07:17:58;95280.06;;;15.00;100.00
57606;BME280;43430;48.204;11.556;2023-08-06T07:20:23;95277.41;;;15.05;100.00
57606;BME280;43430;48.204;11.556;2023-08-06T07:22:49;95295.19;;;14.99;100.00
57606;BME280;43430;48.204;11.556;2023-08-06T07:25:15;95280.59;;;14.86;100.00
57606;BME280;43430;48.204;11.556;2023-08-06T07:27:41;95289.84;;;14.58;100.00
57606;BME280;43430;48.204;11.556;2023-08-06T07:30:07;95289.81;;;14.48;100.00
57606;BME280;43430;48.204;11.556;2023-08-06T07:32:32;95309.63;;;14.15;100.00
57606;BME280;43430;48.204;11.556;2023-08-06T07:34:58;95330.44;;;13.86;100.00
57606;BME280;43430;48.204;11.556;2023-08-06T07:37:31;95331.41;;;13.69;100.00
57606;BME280;43430;48.204;11.556;2023-08-06T07:39:56;95337.19;;;13.61;100.00
57606;BME280;43430;48.204;11.556;2023-08-06T07:42:22;95344.06;;;13.57;100.00
57606;BME280;43430;48.204;11.556;2023-08-06T07:44:54;95348.41;;;13.73;100.00
57606;BME280;43430;48.204;11.556;2023-08-06T07:47:20;95350.84;;;13.80;100.00
57606;BME280;43430;48.204;11.556;2023-08-06T07:49:46;95338.09;;;13.82;100.00
57606;BME280;43430;48.204;11.556;2023-08-06T07:52:11;95336.56;;;13.96;100.00
57606;BME280;43430;48.204;11.556;2023-08-06T07:54:37;95341.66;;;14.03;100.00
57606;BME280;43430;48.204;11.556;2023-08-06T07:57:03;95339.31;;;14.12;100.00
57606;BME280;43430;48.204;11.556;2023-08-06T07:59:28;95342.78;;;14.22;100.00
57606;BME280;43430;48.204;11.556;2023-08-06T08:01:54;95327.69;;;14.23;100.00
57606;BME280;43430;48.204;11.556;2023-08-06T08:04:19;95324.00;;;14.29;100.00
57606;BME280;43430;48.204;11.556;2023-08-06T08:06:46;95317.31;;;14.16;100.00
57606;BME280;43430;48.204;11.556;2023-08-06T08:09:11;95308.03;;;14.19;100.00
57606;BME280;43430;48.204;11.556;2023-08-06T08:11:38;95284.97;;;14.24;100.00
57606;BME280;43430;48.204;11.556;2023-08-06T08:14:04;95280.75;;;14.23;100.00
57606;BME280;43430;48.204;11.556;2023-08-06T08:16:29;95277.03;;;14.30;100.00
57606;BME280;43430;48.204;11.556;2023-08-06T08:18:55;95280.28;;;14.42;100.00
57606;BME280;43430;48.204;11.556;2023-08-06T08:21:20;95259.88;;;14.53;100.00
57606;BME280;43430;48.204;11.556;2023-08-06T08:23:45;95260.94;;;14.57;100.00
57606;BME280;43430;48.204;11.556;2023-08-06T08:26:11;95265.22;;;14.73;100.00
57606;BME280;43430;48.204;11.556;2023-08-06T08:28:36;95258.03;;;14.89;100.00
57606;BME280;43430;48.204;11.556;2023-08-06T08:31:01;95229.63;;;14.84;100.00
57606;BME280;43430;48.204;11.556;2023-08-06T08:33:27;95229.34;;;15.06;100.00
57606;BME280;43430;48.204;11.556;2023-08-06T08:35:52;95236.19;;;15.28;100.00
57606;BME280;43430;48.204;11.556;2023-08-06T08:38:18;95212.28;;;15.38;100.00
57606;BME280;43430;48.204;11.556;2023-08-06T08:40:46;95224.00;;;15.32;100.00
57606;BME280;43430;48.204;11.556;2023-08-06T08:43:17;95229.03;;;15.33;100.00
57606;BME280;43430;48.204;11.556;2023-08-06T08:45:49;95225.03;;;15.31;100.00
57606;BME280;43430;48.204;11.556;2023-08-06T08:48:16;95233.53;;;15.28;100.00
57606;BME280;43430;48.204;11.556;2023-08-06T08:50:45;95234.09;;;15.30;100.00
57606;BME280;43430;48.204;11.556;2023-08-06T08:53:11;95233.03;;;15.20;100.00
57606;BME280;43430;48.204;11.556;2023-08-06T08:55:38;95246.63;;;15.04;100.00
57606;BME280;43430;48.204;11.556;2023-08-06T08:58:04;95239.72;;;14.98;100.00
57606;BME280;43430;48.204;11.556;2023-08-06T09:00:29;95224.31;;;14.94;100.00
57606;BME280;43430;48.204;11.556;2023-08-06T09:02:55;95224.31;;;14.94;100.00
57606;BME280;43430;48.204;11.556;2023-08-06T09:05:23;95236.28;;;14.87;100.00
57606;BME280;43430;48.204;11.556;2023-08-06T09:07:51;95227.25;;;14.78;100.00
57606;BME280;43430;48.204;11.556;2023-08-06T09:10:19;95224.34;;;14.84;100.00
57606;BME280;43430;48.204;11.556;2023-08-06T09:12:51;95240.50;;;14.93;100.00
57606;BME280;43430;48.204;11.556;2023-08-06T09:15:18;95241.59;;;14.87;100.00
57606;BME280;43430;48.204;11.556;2023-08-06T09:17:43;95263.88;;;14.70;100.00
57606;BME280;43430;48.204;11.556;2023-08-06T09:20:12;95279.25;;;14.58;100.00
57606;BME280;43430;48.204;11.556;2023-08-06T09:22:38;95286.09;;;14.44;100.00
57606;BME280;43430;48.204;11.556;2023-08-06T09:25:05;95286.06;;;14.29;100.00
57606;BME280;43430;48.204;11.556;2023-08-06T09:27:37;95286.06;;;14.29;100.00
57606;BME280;43430;48.204;11.556;2023-08-06T09:30:04;95303.53;;;14.19;100.00
57606;BME280;43430;48.204;11.556;2023-08-06T09:32:46;95286.00;;;14.13;100.00
57606;BME280;43430;48.204;11.556;2023-08-06T09:35:16;95268.28;;;14.19;100.00
57606;BME280;43430;48.204;11.556;2023-08-06T09:37:42;95259.03;;;14.32;100.00
57606;BME280;43430;48.204;11.556;2023-08-06T09:40:28;95265.19;;;14.58;100.00
57606;BME280;43430;48.204;11.556;2023-08-06T09:42:54;95253.25;;;14.65;100.00
57606;BME280;43430;48.204;11.556;2023-08-06T09:45:19;95241.03;;;14.75;100.00
57606;BME280;43430;48.204;11.556;2023-08-06T09:47:45;95236.00;;;14.88;100.00
57606;BME280;43430;48.204;11.556;2023-08-06T09:50:20;95224.06;;;14.91;100.00
57606;BME280;43430;48.204;11.556;2023-08-06T09:52:50;95244.25;;;14.77;100.00
57606;BME280;43430;48.204;11.556;2023-08-06T09:55:18;95235.19;;;14.72;100.00
57606;BME280;43430;48.204;11.556;2023-08-06T09:57:44;95246.88;;;14.61;100.00
57606;BME280;43430;48.204;11.556;2023-08-06T10:00:10;95234.13;;;14.68;100.00
57606;BME280;43430;48.204;11.556;2023-08-06T10:02:40;95232.28;;;14.69;100.00
57606;BME280;43430;48.204;11.556;2023-08-06T10:05:06;95228.31;;;14.77;100.00
57606;BME280;43430;48.204;11.556;2023-08-06T10:07:33;95242.38;;;14.72;100.00
57606;BME280;43430;48.204;11.556;2023-08-06T10:09:59;95256.44;;;14.67;100.00
57606;BME280;43430;48.204;11.556;2023-08-06T10:12:26;95237.34;;;14.70;100.00
57606;BME280;43430;48.204;11.556;2023-08-06T10:14:55;95241.81;;;15.06;100.00
57606;BME280;43430;48.204;11.556;2023-08-06T10:17:22;95238.63;;;15.14;100.00
57606;BME280;43430;48.204;11.556;2023-08-06T10:19:49;95233.28;;;15.24;100.00
57606;BME280;43430;48.204;11.556;2023-08-06T10:22:16;95225.84;;;15.36;100.00
57606;BME280;43430;48.204;11.556;2023-08-06T10:24:55;95222.34;;;15.46;100.00
57606;BME280;43430;48.204;11.556;2023-08-06T10:27:55;95225.00;;;15.41;100.00
57606;BME280;43430;48.204;11.556;2023-08-06T10:32:52;95231.66;;;15.43;100.00
57606;BME280;43430;48.204;11.556;2023-08-06T10:35:28;95222.38;;;15.36;100.00
57606;BME280;43430;48.204;11.556;2023-08-06T10:38:08;95232.75;;;15.32;100.00
57606;BME280;43430;48.204;11.556;2023-08-06T10:40:36;95235.69;;;15.26;100.00
57606;BME280;43430;48.204;11.556;2023-08-06T10:43:03;95224.53;;;15.24;100.00
57606;BME280;43430;48.204;11.556;2023-08-06T10:45:29;95227.94;;;15.34;100.00
57606;BME280;43430;48.204;11.556;2023-08-06T10:47:56;95234.63;;;15.32;100.00
57606;BME280;43430;48.204;11.556;2023-08-06T10:50:22;95229.56;;;15.30;100.00
57606;BME280;43430;48.204;11.556;2023-08-06T10:52:48;95235.38;;;15.37;100.00
57606;BME280;43430;48.204;11.556;2023-08-06T10:55:14;95244.59;;;15.65;100.00
57606;BME280;43430;48.204;11.556;2023-08-06T10:57:40;95232.63;;;15.78;100.00
57606;BME280;43430;48.204;11.556;2023-08-06T11:00:06;95228.34;;;15.82;100.00
57606;BME280;43430;48.204;11.556;2023-08-06T11:02:34;95218.53;;;15.83;100.00
57606;BME280;43430;48.204;11.556;2023-08-06T11:05:10;95233.38;;;15.94;100.00
57606;BME280;43430;48.204;11.556;2023-08-06T11:07:36;95228.75;;;16.10;100.00
57606;BME280;43430;48.204;11.556;2023-08-06T11:10:12;95215.69;;;16.19;100.00
57606;BME280;43430;48.204;11.556;2023-08-06T11:12:38;95211.25;;;15.99;100.00
57606;BME280;43430;48.204;11.556;2023-08-06T11:15:04;95228.09;;;15.79;100.00
57606;BME280;43430;48.204;11.556;2023-08-06T11:17:32;95227.34;;;15.73;100.00
57606;BME280;43430;48.204;11.556;2023-08-06T11:20:02;95241.19;;;15.60;100.00
57606;BME280;43430;48.204;11.556;2023-08-06T11:22:28;95235.38;;;15.37;100.00
57606;BME280;43430;48.204;11.556;2023-08-06T11:24:54;95243.88;;;15.44;100.00
57606;BME280;43430;48.204;11.556;2023-08-06T11:27:20;95233.00;;;15.36;100.00
57606;BME280;43430;48.204;11.556;2023-08-06T11:29:45;95250.28;;;15.38;100.00
57606;BME280;43430;48.204;11.556;2023-08-06T11:32:11;95250.31;;;15.28;100.00
57606;BME280;43430;48.204;11.556;2023-08-06T11:34:37;95259.28;;;15.48;100.00
57606;BME280;43430;48.204;11.556;2023-08-06T11:37:03;95253.75;;;15.24;100.00
57606;BME280;43430;48.204;11.556;2023-08-06T11:39:32;95258.53;;;15.16;100.00
57606;BME280;43430;48.204;11.556;2023-08-06T11:41:57;95249.75;;;15.36;100.00
57606;BME280;43430;48.204;11.556;2023-08-06T11:44:25;95261.63;;;15.64;100.00
57606;BME280;43430;48.204;11.556;2023-08-06T11:46:55;95249.56;;;15.98;100.00
57606;BME280;43430;48.204;11.556;2023-08-06T11:54:44;95271.25;;;15.45;100.00
57606;BME280;43430;48.204;11.556;2023-08-06T11:57:11;95265.16;;;15.39;100.00
57606;BME280;43430;48.204;11.556;2023-08-06T11:59:39;95271.47;;;15.59;100.00
57606;BME280;43430;48.204;11.556;2023-08-06T12:02:08;95278.06;;;15.82;100.00
57606;BME280;43430;48.204;11.556;2023-08-06T12:04:57;95281.03;;;15.55;100.00
57606;BME280;43430;48.204;11.556;2023-08-06T12:07:27;95283.16;;;15.68;100.00
57606;BME280;43430;48.204;11.556;2023-08-06T12:09:52;95289.19;;;15.94;100.00
57606;BME280;43430;48.204;11.556;2023-08-06T12:12:18;95266.31;;;15.98;100.00
57606;BME280;43430;48.204;11.556;2023-08-06T12:14:43;95266.59;;;15.97;100.00
57606;BME280;43430;48.204;11.556;2023-08-06T12:17:08;95279.94;;;15.81;100.00
57606;BME280;43430;48.204;11.556;2023-08-06T12:19:34;95280.75;;;15.77;100.00
57606;BME280;43430;48.204;11.556;2023-08-06T12:21:59;95269.03;;;15.83;100.00
57606;BME280;43430;48.204;11.556;2023-08-06T12:24:24;95278.06;;;15.82;100.00
57606;BME280;43430;48.204;11.556;2023-08-06T12:26:50;95273.00;;;15.85;100.00
57606;BME280;43430;48.204;11.556;2023-08-06T12:29:15;95274.19;;;16.13;100.00
57606;BME280;43430;48.204;11.556;2023-08-06T12:31:40;95272.47;;;15.88;100.00
57606;BME280;43430;48.204;11.556;2023-08-06T12:34:06;95272.47;;;15.94;100.00
57606;BME280;43430;48.204;11.556;2023-08-06T12:36:31;95270.63;;;15.84;100.00
57606;BME280;43430;48.204;11.556;2023-08-06T12:38:56;95271.75;;;15.57;100.00
57606;BME280;43430;48.204;11.556;2023-08-06T12:41:22;95278.16;;;15.36;100.00
57606;BME280;43430;48.204;11.556;2023-08-06T12:43:47;95302.09;;;15.10;100.00
57606;BME280;43430;48.204;11.556;2023-08-06T12:46:13;95314.84;;;15.13;100.00
57606;BME280;43430;48.204;11.556;2023-08-06T12:48:38;95327.03;;;14.89;100.00
57606;BME280;43430;48.204;11.556;2023-08-06T12:51:03;95347.22;;;14.90;100.00